sensor_id;sensor_type;location;lat;lon;timestamp;P1;durP1;ratioP1;P2;durP2;ratioP2
54241;SDS011;40156;51.080;17.082;2023-02-28T00:01:29;33.60;;;12.38;;
54241;SDS011;40156;51.080;17.082;2023-02-28T00:03:59;25.95;;;11.35;;
54241;SDS011;40156;51.080;17.082;2023-02-28T00:06:34;28.25;;;11.98;;
54241;SDS011;40156;51.080;17.082;2023-02-28T00:09:03;26.05;;;9.82;;
54241;SDS011;40156;51.080;17.082;2023-02-28T00:11:31;26.20;;;11.35;;
54241;SDS011;40156;51.080;17.082;2023-02-28T00:13:59;32.03;;;11.27;;
54241;SDS011;40156;51.080;17.082;2023-02-28T00:16:27;29.33;;;11.48;;
54241;SDS011;40156;51.080;17.082;2023-02-28T00:18:55;27.08;;;10.43;;
54241;SDS011;40156;51.080;17.082;2023-02-28T00:21:23;25.17;;;10.60;;
54241;SDS011;40156;51.080;17.082;2023-02-28T00:23:52;30.45;;;11.57;;
54241;SDS011;40156;51.080;17.082;2023-02-28T00:26:20;28.02;;;11.75;;
54241;SDS011;40156;51.080;17.082;2023-02-28T00:28:48;26.98;;;12.18;;
54241;SDS011;40156;51.080;17.082;2023-02-28T00:31:18;26.05;;;11.45;;
54241;SDS011;40156;51.080;17.082;2023-02-28T00:33:47;27.38;;;10.52;;
54241;SDS011;40156;51.080;17.082;2023-02-28T00:36:15;25.00;;;10.65;;
54241;SDS011;40156;51.080;17.082;2023-02-28T00:38:43;26.35;;;10.93;;
54241;SDS011;40156;51.080;17.082;2023-02-28T00:41:11;24.10;;;10.88;;
54241;SDS011;40156;51.080;17.082;2023-02-28T00:43:39;20.67;;;10.77;;
54241;SDS011;40156;51.080;17.082;2023-02-28T00:46:07;23.25;;;9.80;;
54241;SDS011;40156;51.080;17.082;2023-02-28T00:48:36;22.88;;;9.75;;
54241;SDS011;40156;51.080;17.082;2023-02-28T00:51:04;24.35;;;10.48;;
54241;SDS011;40156;51.080;17.082;2023-02-28T00:53:32;24.05;;;9.40;;
54241;SDS011;40156;51.080;17.082;2023-02-28T00:56:00;25.38;;;10.43;;
54241;SDS011;40156;51.080;17.082;2023-02-28T00:58:30;28.15;;;10.85;;
54241;SDS011;40156;51.080;17.082;2023-02-28T01:00:58;22.35;;;9.98;;
54241;SDS011;40156;51.080;17.082;2023-02-28T01:03:26;22.02;;;9.88;;
54241;SDS011;40156;51.080;17.082;2023-02-28T01:05:54;29.33;;;10.95;;
54241;SDS011;40156;51.080;17.082;2023-02-28T01:08:23;30.83;;;11.25;;
54241;SDS011;40156;51.080;17.082;2023-02-28T01:10:57;25.15;;;9.52;;
54241;SDS011;40156;51.080;17.082;2023-02-28T01:13:25;29.73;;;11.50;;
54241;SDS011;40156;51.080;17.082;2023-02-28T01:15:55;22.60;;;10.63;;
54241;SDS011;40156;51.080;17.082;2023-02-28T01:18:24;32.83;;;11.70;;
54241;SDS011;40156;51.080;17.082;2023-02-28T01:20:52;29.17;;;10.73;;
54241;SDS011;40156;51.080;17.082;2023-02-28T01:23:21;23.50;;;10.93;;
54241;SDS011;40156;51.080;17.082;2023-02-28T01:29:31;27.08;;;11.18;;
54241;SDS011;40156;51.080;17.082;2023-02-28T01:31:59;22.75;;;10.35;;
54241;SDS011;40156;51.080;17.082;2023-02-28T01:34:27;23.20;;;11.30;;
54241;SDS011;40156;51.080;17.082;2023-02-28T01:37:14;24.48;;;10.35;;
54241;SDS011;40156;51.080;17.082;2023-02-28T01:39:42;24.35;;;10.75;;
54241;SDS011;40156;51.080;17.082;2023-02-28T01:42:10;23.88;;;10.77;;
54241;SDS011;40156;51.080;17.082;2023-02-28T01:44:54;30.58;;;11.90;;
54241;SDS011;40156;51.080;17.082;2023-02-28T01:47:41;32.40;;;12.25;;
54241;SDS011;40156;51.080;17.082;2023-02-28T01:50:12;29.25;;;11.38;;
54241;SDS011;40156;51.080;17.082;2023-02-28T01:52:46;30.98;;;11.13;;
54241;SDS011;40156;51.080;17.082;2023-02-28T01:55:18;29.30;;;11.10;;
54241;SDS011;40156;51.080;17.082;2023-02-28T01:57:50;30.35;;;11.73;;
54241;SDS011;40156;51.080;17.082;2023-02-28T02:00:23;25.90;;;10.77;;
54241;SDS011;40156;51.080;17.082;2023-02-28T02:02:54;24.05;;;11.38;;
54241;SDS011;40156;51.080;17.082;2023-02-28T02:05:27;27.52;;;10.93;;
54241;SDS011;40156;51.080;17.082;2023-02-28T02:07:58;27.05;;;10.77;;
54241;SDS011;40156;51.080;17.082;2023-02-28T02:10:33;25.85;;;11.40;;
54241;SDS011;40156;51.080;17.082;2023-02-28T02:13:42;24.27;;;9.50;;
54241;SDS011;40156;51.080;17.082;2023-02-28T02:19:11;26.23;;;10.93;;
54241;SDS011;40156;51.080;17.082;2023-02-28T02:39:06;22.27;;;10.73;;
54241;SDS011;40156;51.080;17.082;2023-02-28T02:42:01;27.25;;;10.98;;
54241;SDS011;40156;51.080;17.082;2023-02-28T02:44:39;25.65;;;10.63;;
54241;SDS011;40156;51.080;17.082;2023-02-28T02:47:12;24.10;;;10.68;;
54241;SDS011;40156;51.080;17.082;2023-02-28T02:49:54;22.73;;;10.82;;
54241;SDS011;40156;51.080;17.082;2023-02-28T02:52:29;24.63;;;10.15;;
54241;SDS011;40156;51.080;17.082;2023-02-28T02:55:02;22.73;;;9.68;;
54241;SDS011;40156;51.080;17.082;2023-02-28T02:57:35;23.77;;;10.47;;
54241;SDS011;40156;51.080;17.082;2023-02-28T03:00:08;23.60;;;9.95;;
54241;SDS011;40156;51.080;17.082;2023-02-28T03:02:37;26.30;;;11.57;;
54241;SDS011;40156;51.080;17.082;2023-02-28T03:05:09;29.55;;;11.50;;
54241;SDS011;40156;51.080;17.082;2023-02-28T03:08:04;31.73;;;12.50;;
54241;SDS011;40156;51.080;17.082;2023-02-28T03:10:34;27.08;;;11.07;;
54241;SDS011;40156;51.080;17.082;2023-02-28T03:24:54;31.48;;;12.40;;
54241;SDS011;40156;51.080;17.082;2023-02-28T03:27:40;35.58;;;13.07;;
54241;SDS011;40156;51.080;17.082;2023-02-28T03:30:29;29.20;;;12.63;;
54241;SDS011;40156;51.080;17.082;2023-02-28T03:33:23;29.35;;;11.60;;
54241;SDS011;40156;51.080;17.082;2023-02-28T03:36:35;28.10;;;11.55;;
54241;SDS011;40156;51.080;17.082;2023-02-28T03:39:01;28.92;;;12.50;;
54241;SDS011;40156;51.080;17.082;2023-02-28T03:41:37;28.48;;;11.20;;
54241;SDS011;40156;51.080;17.082;2023-02-28T03:44:14;26.42;;;11.80;;
54241;SDS011;40156;51.080;17.082;2023-02-28T03:46:52;29.98;;;13.27;;
54241;SDS011;40156;51.080;17.082;2023-02-28T03:49:30;26.60;;;11.57;;
54241;SDS011;40156;51.080;17.082;2023-02-28T03:52:05;25.08;;;11.18;;
54241;SDS011;40156;51.080;17.082;2023-02-28T03:54:35;27.77;;;11.27;;
54241;SDS011;40156;51.080;17.082;2023-02-28T03:57:12;32.53;;;12.93;;
54241;SDS011;40156;51.080;17.082;2023-02-28T03:59:51;28.50;;;12.77;;
54241;SDS011;40156;51.080;17.082;2023-02-28T04:02:25;28.85;;;11.75;;
54241;SDS011;40156;51.080;17.082;2023-02-28T04:04:53;28.20;;;11.98;;
54241;SDS011;40156;51.080;17.082;2023-02-28T04:07:21;32.30;;;12.00;;
54241;SDS011;40156;51.080;17.082;2023-02-28T04:09:49;27.83;;;12.65;;
54241;SDS011;40156;51.080;17.082;2023-02-28T04:12:18;25.83;;;11.32;;
54241;SDS011;40156;51.080;17.082;2023-02-28T04:14:46;27.23;;;12.10;;
54241;SDS011;40156;51.080;17.082;2023-02-28T04:17:14;31.35;;;12.90;;
54241;SDS011;40156;51.080;17.082;2023-02-28T04:19:43;39.20;;;13.32;;
54241;SDS011;40156;51.080;17.082;2023-02-28T04:22:12;32.80;;;13.45;;
54241;SDS011;40156;51.080;17.082;2023-02-28T04:24:40;29.17;;;12.48;;
54241;SDS011;40156;51.080;17.082;2023-02-28T04:27:09;29.63;;;11.20;;
54241;SDS011;40156;51.080;17.082;2023-02-28T04:29:37;39.35;;;13.77;;
54241;SDS011;40156;51.080;17.082;2023-02-28T04:32:06;36.60;;;12.82;;
54241;SDS011;40156;51.080;17.082;2023-02-28T04:34:34;33.63;;;13.70;;
54241;SDS011;40156;51.080;17.082;2023-02-28T04:37:03;28.30;;;12.82;;
54241;SDS011;40156;51.080;17.082;2023-02-28T04:39:40;30.90;;;12.20;;
54241;SDS011;40156;51.080;17.082;2023-02-28T04:42:09;25.98;;;11.10;;
54241;SDS011;40156;51.080;17.082;2023-02-28T04:44:38;27.50;;;12.00;;
54241;SDS011;40156;51.080;17.082;2023-02-28T04:47:06;25.50;;;10.93;;
54241;SDS011;40156;51.080;17.082;2023-02-28T04:49:35;25.48;;;10.65;;
54241;SDS011;40156;51.080;17.082;2023-02-28T04:52:03;26.98;;;11.20;;
54241;SDS011;40156;51.080;17.082;2023-02-28T04:54:31;31.48;;;10.95;;
54241;SDS011;40156;51.080;17.082;2023-02-28T04:57:00;25.83;;;11.32;;
54241;SDS011;40156;51.080;17.082;2023-02-28T04:59:28;27.85;;;11.63;;
54241;SDS011;40156;51.080;17.082;2023-02-28T05:01:56;26.70;;;11.27;;
54241;SDS011;40156;51.080;17.082;2023-02-28T05:04:39;26.38;;;11.63;;
54241;SDS011;40156;51.080;17.082;2023-02-28T05:07:07;24.15;;;11.32;;
54241;SDS011;40156;51.080;17.082;2023-02-28T05:09:35;25.73;;;11.32;;
54241;SDS011;40156;51.080;17.082;2023-02-28T05:12:04;28.85;;;10.20;;
54241;SDS011;40156;51.080;17.082;2023-02-28T05:14:32;28.48;;;10.93;;
54241;SDS011;40156;51.080;17.082;2023-02-28T05:17:00;28.08;;;11.32;;
54241;SDS011;40156;51.080;17.082;2023-02-28T05:19:28;25.58;;;11.32;;
54241;SDS011;40156;51.080;17.082;2023-02-28T05:21:56;24.67;;;12.65;;
54241;SDS011;40156;51.080;17.082;2023-02-28T05:24:24;25.48;;;11.35;;
54241;SDS011;40156;51.080;17.082;2023-02-28T05:26:53;25.10;;;10.88;;
54241;SDS011;40156;51.080;17.082;2023-02-28T05:29:22;23.20;;;10.68;;
54241;SDS011;40156;51.080;17.082;2023-02-28T05:31:50;24.00;;;10.27;;
54241;SDS011;40156;51.080;17.082;2023-02-28T05:34:26;24.05;;;11.60;;
54241;SDS011;40156;51.080;17.082;2023-02-28T05:36:54;22.23;;;10.30;;
54241;SDS011;40156;51.080;17.082;2023-02-28T05:39:22;29.75;;;11.60;;
54241;SDS011;40156;51.080;17.082;2023-02-28T05:41:50;32.33;;;13.88;;
54241;SDS011;40156;51.080;17.082;2023-02-28T05:44:18;34.42;;;13.75;;
54241;SDS011;40156;51.080;17.082;2023-02-28T05:46:47;31.05;;;13.43;;
54241;SDS011;40156;51.080;17.082;2023-02-28T05:49:15;25.50;;;11.15;;
54241;SDS011;40156;51.080;17.082;2023-02-28T05:51:43;27.70;;;11.65;;
54241;SDS011;40156;51.080;17.082;2023-02-28T05:54:11;32.33;;;12.68;;
54241;SDS011;40156;51.080;17.082;2023-02-28T05:56:40;27.90;;;13.27;;
54241;SDS011;40156;51.080;17.082;2023-02-28T05:59:09;22.10;;;10.20;;
54241;SDS011;40156;51.080;17.082;2023-02-28T06:05:17;30.15;;;12.27;;
54241;SDS011;40156;51.080;17.082;2023-02-28T06:07:45;29.90;;;11.85;;
54241;SDS011;40156;51.080;17.082;2023-02-28T06:10:13;22.73;;;10.40;;
54241;SDS011;40156;51.080;17.082;2023-02-28T06:12:42;28.55;;;11.98;;
54241;SDS011;40156;51.080;17.082;2023-02-28T06:15:13;25.40;;;11.52;;
54241;SDS011;40156;51.080;17.082;2023-02-28T06:17:42;22.77;;;11.57;;
54241;SDS011;40156;51.080;17.082;2023-02-28T06:23:06;26.52;;;12.18;;
54241;SDS011;40156;51.080;17.082;2023-02-28T06:25:34;37.25;;;14.10;;
54241;SDS011;40156;51.080;17.082;2023-02-28T06:28:02;33.55;;;14.30;;
54241;SDS011;40156;51.080;17.082;2023-02-28T06:30:30;33.10;;;12.57;;
54241;SDS011;40156;51.080;17.082;2023-02-28T06:32:59;27.90;;;13.10;;
54241;SDS011;40156;51.080;17.082;2023-02-28T06:35:35;34.25;;;13.50;;
54241;SDS011;40156;51.080;17.082;2023-02-28T06:38:03;29.90;;;11.30;;
54241;SDS011;40156;51.080;17.082;2023-02-28T06:40:31;18.98;;;9.35;;
54241;SDS011;40156;51.080;17.082;2023-02-28T06:42:58;21.35;;;8.90;;
54241;SDS011;40156;51.080;17.082;2023-02-28T06:45:26;20.83;;;8.80;;
54241;SDS011;40156;51.080;17.082;2023-02-28T06:47:54;12.80;;;6.80;;
54241;SDS011;40156;51.080;17.082;2023-02-28T06:50:21;14.95;;;7.75;;
54241;SDS011;40156;51.080;17.082;2023-02-28T06:52:49;14.98;;;7.72;;
54241;SDS011;40156;51.080;17.082;2023-02-28T06:55:17;17.15;;;8.93;;
54241;SDS011;40156;51.080;17.082;2023-02-28T06:57:44;19.10;;;8.85;;
54241;SDS011;40156;51.080;17.082;2023-02-28T07:00:12;14.70;;;8.20;;
54241;SDS011;40156;51.080;17.082;2023-02-28T07:05:12;14.73;;;7.72;;
54241;SDS011;40156;51.080;17.082;2023-02-28T07:07:40;14.25;;;7.50;;
54241;SDS011;40156;51.080;17.082;2023-02-28T07:10:07;17.38;;;8.80;;
54241;SDS011;40156;51.080;17.082;2023-02-28T07:12:35;14.75;;;8.32;;
54241;SDS011;40156;51.080;17.082;2023-02-28T07:15:04;13.95;;;7.55;;
54241;SDS011;40156;51.080;17.082;2023-02-28T07:17:32;20.13;;;9.07;;
54241;SDS011;40156;51.080;17.082;2023-02-28T07:19:59;17.05;;;8.95;;
54241;SDS011;40156;51.080;17.082;2023-02-28T07:22:27;20.05;;;11.55;;
54241;SDS011;40156;51.080;17.082;2023-02-28T07:24:55;14.07;;;8.00;;
54241;SDS011;40156;51.080;17.082;2023-02-28T07:27:22;20.70;;;11.57;;
54241;SDS011;40156;51.080;17.082;2023-02-28T07:29:50;16.90;;;9.48;;
54241;SDS011;40156;51.080;17.082;2023-02-28T07:32:18;25.02;;;9.52;;
54241;SDS011;40156;51.080;17.082;2023-02-28T07:34:45;18.35;;;9.35;;
54241;SDS011;40156;51.080;17.082;2023-02-28T07:37:13;17.58;;;9.55;;
54241;SDS011;40156;51.080;17.082;2023-02-28T07:39:41;14.73;;;8.20;;
54241;SDS011;40156;51.080;17.082;2023-02-28T07:42:08;14.80;;;7.88;;
54241;SDS011;40156;51.080;17.082;2023-02-28T07:44:36;14.18;;;8.30;;
54241;SDS011;40156;51.080;17.082;2023-02-28T07:47:04;20.38;;;9.07;;
54241;SDS011;40156;51.080;17.082;2023-02-28T07:49:31;16.63;;;8.05;;
54241;SDS011;40156;51.080;17.082;2023-02-28T07:51:59;14.93;;;8.13;;
54241;SDS011;40156;51.080;17.082;2023-02-28T07:54:26;17.85;;;9.00;;
54241;SDS011;40156;51.080;17.082;2023-02-28T07:56:54;13.90;;;8.23;;
54241;SDS011;40156;51.080;17.082;2023-02-28T07:59:21;16.08;;;7.78;;
54241;SDS011;40156;51.080;17.082;2023-02-28T08:01:49;15.57;;;7.47;;
54241;SDS011;40156;51.080;17.082;2023-02-28T08:04:17;7.32;;;4.63;;
54241;SDS011;40156;51.080;17.082;2023-02-28T08:06:44;13.50;;;7.47;;
54241;SDS011;40156;51.080;17.082;2023-02-28T08:09:12;13.65;;;6.43;;
54241;SDS011;40156;51.080;17.082;2023-02-28T08:11:39;8.57;;;4.97;;
54241;SDS011;40156;51.080;17.082;2023-02-28T08:14:07;9.68;;;5.57;;
54241;SDS011;40156;51.080;17.082;2023-02-28T08:16:35;13.65;;;6.90;;
54241;SDS011;40156;51.080;17.082;2023-02-28T08:19:02;12.30;;;6.88;;
54241;SDS011;40156;51.080;17.082;2023-02-28T08:21:30;10.88;;;7.00;;
54241;SDS011;40156;51.080;17.082;2023-02-28T08:23:59;12.75;;;7.25;;
54241;SDS011;40156;51.080;17.082;2023-02-28T08:26:26;10.00;;;5.93;;
54241;SDS011;40156;51.080;17.082;2023-02-28T08:28:54;9.73;;;6.22;;
54241;SDS011;40156;51.080;17.082;2023-02-28T08:31:24;10.77;;;6.10;;
54241;SDS011;40156;51.080;17.082;2023-02-28T08:33:51;8.13;;;4.95;;
54241;SDS011;40156;51.080;17.082;2023-02-28T08:36:19;9.65;;;5.93;;
54241;SDS011;40156;51.080;17.082;2023-02-28T08:38:46;12.02;;;6.28;;
54241;SDS011;40156;51.080;17.082;2023-02-28T08:41:14;8.68;;;5.35;;
54241;SDS011;40156;51.080;17.082;2023-02-28T08:43:42;10.52;;;5.95;;
54241;SDS011;40156;51.080;17.082;2023-02-28T08:46:12;8.68;;;5.82;;
54241;SDS011;40156;51.080;17.082;2023-02-28T08:48:40;7.72;;;4.97;;
54241;SDS011;40156;51.080;17.082;2023-02-28T08:51:09;8.95;;;4.75;;
54241;SDS011;40156;51.080;17.082;2023-02-28T08:53:37;8.02;;;5.15;;
54241;SDS011;40156;51.080;17.082;2023-02-28T08:56:06;8.70;;;5.38;;
54241;SDS011;40156;51.080;17.082;2023-02-28T08:58:34;8.48;;;4.20;;
54241;SDS011;40156;51.080;17.082;2023-02-28T09:03:50;7.53;;;4.43;;
54241;SDS011;40156;51.080;17.082;2023-02-28T09:06:19;7.93;;;4.80;;
54241;SDS011;40156;51.080;17.082;2023-02-28T09:08:47;8.93;;;5.25;;
54241;SDS011;40156;51.080;17.082;2023-02-28T09:11:15;7.43;;;4.15;;
54241;SDS011;40156;51.080;17.082;2023-02-28T09:13:42;11.48;;;5.30;;
54241;SDS011;40156;51.080;17.082;2023-02-28T09:16:11;6.57;;;4.47;;
54241;SDS011;40156;51.080;17.082;2023-02-28T09:18:39;8.50;;;4.40;;
54241;SDS011;40156;51.080;17.082;2023-02-28T09:21:08;6.60;;;4.45;;
54241;SDS011;40156;51.080;17.082;2023-02-28T09:23:36;8.15;;;4.53;;
54241;SDS011;40156;51.080;17.082;2023-02-28T09:26:04;9.30;;;5.35;;
54241;SDS011;40156;51.080;17.082;2023-02-28T09:28:32;7.13;;;5.20;;
54241;SDS011;40156;51.080;17.082;2023-02-28T09:34:08;11.75;;;5.45;;
54241;SDS011;40156;51.080;17.082;2023-02-28T09:36:36;11.75;;;5.10;;
54241;SDS011;40156;51.080;17.082;2023-02-28T09:39:11;6.25;;;4.40;;
54241;SDS011;40156;51.080;17.082;2023-02-28T09:41:41;6.50;;;4.03;;
54241;SDS011;40156;51.080;17.082;2023-02-28T09:44:09;6.78;;;3.80;;
54241;SDS011;40156;51.080;17.082;2023-02-28T09:46:41;6.28;;;3.97;;
54241;SDS011;40156;51.080;17.082;2023-02-28T09:49:17;8.88;;;4.15;;
54241;SDS011;40156;51.080;17.082;2023-02-28T09:54:27;8.82;;;5.10;;
54241;SDS011;40156;51.080;17.082;2023-02-28T09:56:57;7.05;;;4.63;;
54241;SDS011;40156;51.080;17.082;2023-02-28T10:07:27;7.82;;;4.55;;
54241;SDS011;40156;51.080;17.082;2023-02-28T10:10:01;6.55;;;4.05;;
54241;SDS011;40156;51.080;17.082;2023-02-28T10:12:31;6.40;;;3.95;;
54241;SDS011;40156;51.080;17.082;2023-02-28T10:14:59;6.78;;;3.78;;
54241;SDS011;40156;51.080;17.082;2023-02-28T10:17:28;7.18;;;3.95;;
54241;SDS011;40156;51.080;17.082;2023-02-28T10:20:10;6.65;;;3.95;;
54241;SDS011;40156;51.080;17.082;2023-02-28T10:25:24;6.68;;;3.95;;
54241;SDS011;40156;51.080;17.082;2023-02-28T10:28:00;7.30;;;4.28;;
54241;SDS011;40156;51.080;17.082;2023-02-28T10:30:28;7.50;;;4.60;;
54241;SDS011;40156;51.080;17.082;2023-02-28T10:32:56;7.25;;;4.60;;
54241;SDS011;40156;51.080;17.082;2023-02-28T10:35:24;8.93;;;4.53;;
54241;SDS011;40156;51.080;17.082;2023-02-28T10:37:54;7.25;;;5.07;;
54241;SDS011;40156;51.080;17.082;2023-02-28T10:42:56;6.95;;;4.78;;
54241;SDS011;40156;51.080;17.082;2023-02-28T10:45:24;9.32;;;5.05;;
54241;SDS011;40156;51.080;17.082;2023-02-28T10:50:35;8.10;;;5.30;;
54241;SDS011;40156;51.080;17.082;2023-02-28T10:53:07;11.07;;;5.53;;
54241;SDS011;40156;51.080;17.082;2023-02-28T10:55:34;9.27;;;5.00;;
54241;SDS011;40156;51.080;17.082;2023-02-28T10:58:02;12.70;;;6.07;;
54241;SDS011;40156;51.080;17.082;2023-02-28T11:00:34;9.32;;;5.05;;
54241;SDS011;40156;51.080;17.082;2023-02-28T11:03:02;9.25;;;5.35;;
54241;SDS011;40156;51.080;17.082;2023-02-28T11:05:49;8.57;;;5.18;;
54241;SDS011;40156;51.080;17.082;2023-02-28T11:08:18;9.50;;;5.97;;
54241;SDS011;40156;51.080;17.082;2023-02-28T11:10:46;8.07;;;4.80;;
54241;SDS011;40156;51.080;17.082;2023-02-28T11:13:19;9.27;;;5.40;;
54241;SDS011;40156;51.080;17.082;2023-02-28T11:15:56;8.68;;;5.15;;
54241;SDS011;40156;51.080;17.082;2023-02-28T11:18:29;10.85;;;5.53;;
54241;SDS011;40156;51.080;17.082;2023-02-28T11:20:58;12.05;;;5.63;;
54241;SDS011;40156;51.080;17.082;2023-02-28T11:23:27;11.20;;;5.95;;
54241;SDS011;40156;51.080;17.082;2023-02-28T11:25:56;12.00;;;5.22;;
54241;SDS011;40156;51.080;17.082;2023-02-28T11:31:00;9.40;;;5.50;;
54241;SDS011;40156;51.080;17.082;2023-02-28T11:33:30;7.32;;;5.03;;
54241;SDS011;40156;51.080;17.082;2023-02-28T11:36:02;10.30;;;5.00;;
54241;SDS011;40156;51.080;17.082;2023-02-28T11:38:32;8.82;;;4.93;;
54241;SDS011;40156;51.080;17.082;2023-02-28T11:48:52;9.15;;;5.00;;
54241;SDS011;40156;51.080;17.082;2023-02-28T11:51:26;9.52;;;5.57;;
54241;SDS011;40156;51.080;17.082;2023-02-28T11:56:25;9.82;;;4.63;;
54241;SDS011;40156;51.080;17.082;2023-02-28T12:11:56;7.50;;;4.80;;
54241;SDS011;40156;51.080;17.082;2023-02-28T12:20:14;8.45;;;5.00;;
54241;SDS011;40156;51.080;17.082;2023-02-28T12:27:46;11.95;;;5.95;;
54241;SDS011;40156;51.080;17.082;2023-02-28T12:30:16;13.00;;;6.07;;
54241;SDS011;40156;51.080;17.082;2023-02-28T12:32:47;13.02;;;6.32;;
54241;SDS011;40156;51.080;17.082;2023-02-28T12:35:23;13.02;;;6.85;;
54241;SDS011;40156;51.080;17.082;2023-02-28T12:40:20;10.60;;;6.22;;
54241;SDS011;40156;51.080;17.082;2023-02-28T12:42:52;15.32;;;7.53;;
54241;SDS011;40156;51.080;17.082;2023-02-28T12:45:27;12.80;;;6.63;;
54241;SDS011;40156;51.080;17.082;2023-02-28T12:48:03;13.57;;;6.07;;
54241;SDS011;40156;51.080;17.082;2023-02-28T12:50:32;11.50;;;5.70;;
54241;SDS011;40156;51.080;17.082;2023-02-28T13:06:18;14.57;;;6.40;;
54241;SDS011;40156;51.080;17.082;2023-02-28T13:09:00;11.55;;;6.13;;
54241;SDS011;40156;51.080;17.082;2023-02-28T13:14:16;14.25;;;5.82;;
54241;SDS011;40156;51.080;17.082;2023-02-28T13:16:56;10.77;;;5.95;;
54241;SDS011;40156;51.080;17.082;2023-02-28T13:19:28;11.40;;;6.00;;
54241;SDS011;40156;51.080;17.082;2023-02-28T13:21:57;12.90;;;6.22;;
54241;SDS011;40156;51.080;17.082;2023-02-28T13:24:45;11.30;;;5.90;;
54241;SDS011;40156;51.080;17.082;2023-02-28T13:29:44;15.15;;;6.72;;
54241;SDS011;40156;51.080;17.082;2023-02-28T13:34:41;14.68;;;6.40;;
54241;SDS011;40156;51.080;17.082;2023-02-28T13:47:27;14.65;;;6.20;;
54241;SDS011;40156;51.080;17.082;2023-02-28T13:50:14;12.30;;;6.22;;
54241;SDS011;40156;51.080;17.082;2023-02-28T13:55:36;16.50;;;8.60;;
54241;SDS011;40156;51.080;17.082;2023-02-28T14:04:21;18.10;;;7.65;;
54241;SDS011;40156;51.080;17.082;2023-02-28T14:06:53;15.27;;;7.65;;
54241;SDS011;40156;51.080;17.082;2023-02-28T14:09:25;19.38;;;7.80;;
54241;SDS011;40156;51.080;17.082;2023-02-28T14:11:54;17.50;;;7.45;;
54241;SDS011;40156;51.080;17.082;2023-02-28T14:17:03;22.02;;;9.20;;
54241;SDS011;40156;51.080;17.082;2023-02-28T14:19:32;16.10;;;8.32;;
54241;SDS011;40156;51.080;17.082;2023-02-28T14:27:22;18.33;;;8.32;;
54241;SDS011;40156;51.080;17.082;2023-02-28T14:38:46;20.67;;;8.70;;
54241;SDS011;40156;51.080;17.082;2023-02-28T14:43:54;16.98;;;7.13;;
54241;SDS011;40156;51.080;17.082;2023-02-28T14:46:47;13.93;;;7.07;;
54241;SDS011;40156;51.080;17.082;2023-02-28T14:49:16;15.80;;;7.15;;
54241;SDS011;40156;51.080;17.082;2023-02-28T14:51:44;17.27;;;7.18;;
54241;SDS011;40156;51.080;17.082;2023-02-28T14:54:13;13.88;;;7.13;;
54241;SDS011;40156;51.080;17.082;2023-02-28T14:56:42;20.45;;;7.45;;
54241;SDS011;40156;51.080;17.082;2023-02-28T15:02:18;16.38;;;7.72;;
54241;SDS011;40156;51.080;17.082;2023-02-28T15:04:53;15.40;;;6.82;;
54241;SDS011;40156;51.080;17.082;2023-02-28T15:07:22;16.52;;;7.32;;
54241;SDS011;40156;51.080;17.082;2023-02-28T15:09:49;14.55;;;6.90;;
54241;SDS011;40156;51.080;17.082;2023-02-28T15:12:34;20.52;;;8.43;;
54241;SDS011;40156;51.080;17.082;2023-02-28T15:15:01;19.73;;;7.32;;
54241;SDS011;40156;51.080;17.082;2023-02-28T15:17:32;10.88;;;5.43;;
54241;SDS011;40156;51.080;17.082;2023-02-28T15:19:59;16.00;;;7.85;;
54241;SDS011;40156;51.080;17.082;2023-02-28T15:22:35;13.30;;;6.10;;
54241;SDS011;40156;51.080;17.082;2023-02-28T15:25:03;14.27;;;6.18;;
54241;SDS011;40156;51.080;17.082;2023-02-28T15:27:32;15.45;;;6.53;;
54241;SDS011;40156;51.080;17.082;2023-02-28T15:30:04;13.07;;;5.72;;
54241;SDS011;40156;51.080;17.082;2023-02-28T15:35:35;16.15;;;6.50;;
54241;SDS011;40156;51.080;17.082;2023-02-28T15:40:51;13.60;;;5.55;;
54241;SDS011;40156;51.080;17.082;2023-02-28T15:43:29;13.43;;;5.78;;
54241;SDS011;40156;51.080;17.082;2023-02-28T15:45:58;25.98;;;6.63;;
54241;SDS011;40156;51.080;17.082;2023-02-28T15:48:28;12.55;;;5.78;;
54241;SDS011;40156;51.080;17.082;2023-02-28T15:50:58;11.60;;;6.07;;
54241;SDS011;40156;51.080;17.082;2023-02-28T15:53:30;13.40;;;6.38;;
54241;SDS011;40156;51.080;17.082;2023-02-28T15:56:02;11.57;;;6.30;;
54241;SDS011;40156;51.080;17.082;2023-02-28T15:58:32;12.90;;;5.82;;
54241;SDS011;40156;51.080;17.082;2023-02-28T16:03:42;12.90;;;6.22;;
54241;SDS011;40156;51.080;17.082;2023-02-28T16:08:44;14.40;;;5.82;;
54241;SDS011;40156;51.080;17.082;2023-02-28T16:11:11;13.23;;;5.97;;
54241;SDS011;40156;51.080;17.082;2023-02-28T16:13:39;13.95;;;6.63;;
54241;SDS011;40156;51.080;17.082;2023-02-28T16:16:07;11.70;;;5.72;;
54241;SDS011;40156;51.080;17.082;2023-02-28T16:18:35;12.13;;;5.57;;
54241;SDS011;40156;51.080;17.082;2023-02-28T16:21:02;11.18;;;5.18;;
54241;SDS011;40156;51.080;17.082;2023-02-28T16:23:30;14.02;;;5.55;;
54241;SDS011;40156;51.080;17.082;2023-02-28T16:25:57;11.93;;;5.72;;
54241;SDS011;40156;51.080;17.082;2023-02-28T16:28:30;13.43;;;5.30;;
54241;SDS011;40156;51.080;17.082;2023-02-28T16:31:00;11.23;;;5.70;;
54241;SDS011;40156;51.080;17.082;2023-02-28T16:33:28;17.27;;;6.43;;
54241;SDS011;40156;51.080;17.082;2023-02-28T16:35:56;15.82;;;6.82;;
54241;SDS011;40156;51.080;17.082;2023-02-28T16:38:27;17.20;;;6.32;;
54241;SDS011;40156;51.080;17.082;2023-02-28T16:40:55;12.63;;;5.95;;
54241;SDS011;40156;51.080;17.082;2023-02-28T16:43:23;14.18;;;7.07;;
54241;SDS011;40156;51.080;17.082;2023-02-28T16:45:55;17.75;;;7.32;;
54241;SDS011;40156;51.080;17.082;2023-02-28T16:48:23;14.30;;;6.88;;
54241;SDS011;40156;51.080;17.082;2023-02-28T16:50:51;16.58;;;6.93;;
54241;SDS011;40156;51.080;17.082;2023-02-28T16:53:19;15.40;;;7.35;;
54241;SDS011;40156;51.080;17.082;2023-02-28T16:55:46;13.77;;;7.32;;
54241;SDS011;40156;51.080;17.082;2023-02-28T16:58:15;19.48;;;7.65;;
54241;SDS011;40156;51.080;17.082;2023-02-28T17:00:43;16.13;;;8.18;;
54241;SDS011;40156;51.080;17.082;2023-02-28T17:05:59;18.17;;;6.88;;
54241;SDS011;40156;51.080;17.082;2023-02-28T17:08:27;19.70;;;8.07;;
54241;SDS011;40156;51.080;17.082;2023-02-28T17:10:54;19.20;;;8.27;;
54241;SDS011;40156;51.080;17.082;2023-02-28T17:13:22;23.40;;;8.80;;
54241;SDS011;40156;51.080;17.082;2023-02-28T17:15:49;20.40;;;9.25;;
54241;SDS011;40156;51.080;17.082;2023-02-28T17:18:18;19.73;;;9.15;;
54241;SDS011;40156;51.080;17.082;2023-02-28T17:24:08;17.02;;;8.00;;
54241;SDS011;40156;51.080;17.082;2023-02-28T17:26:45;19.52;;;8.60;;
54241;SDS011;40156;51.080;17.082;2023-02-28T17:29:17;24.00;;;9.43;;
54241;SDS011;40156;51.080;17.082;2023-02-28T17:31:45;33.15;;;13.05;;
54241;SDS011;40156;51.080;17.082;2023-02-28T17:34:12;30.45;;;15.18;;
54241;SDS011;40156;51.080;17.082;2023-02-28T17:36:40;22.42;;;10.82;;
54241;SDS011;40156;51.080;17.082;2023-02-28T17:39:08;26.67;;;11.02;;
54241;SDS011;40156;51.080;17.082;2023-02-28T17:41:36;22.55;;;9.77;;
54241;SDS011;40156;51.080;17.082;2023-02-28T17:44:04;24.63;;;11.40;;
54241;SDS011;40156;51.080;17.082;2023-02-28T17:46:32;28.58;;;11.32;;